Flight Track Log - Related Links

Times and Time Zones

All times are in EDT time to prevent confusion due to time zone crossing. See the C-FCPO flight status page for this flight to view local times or setup timezone preferences in your user account.

Time Position Orientation Groundspeed Altitude Reporting Facility
EDT Latitude Longitude Course Direction KTS MPH feet Rate Location/Type
Tue 12:00:33 PM 44.8667 -63.4833 90° East 80 92 800  Level Moncton Center
Tue 12:01:33 PM 44.8667 -63.4500 90° East 110 127 1,500 750 Climbing Moncton Center
Tue 12:02:33 PM 44.9000 -63.4500 360° North 130 150 2,300 750 Climbing Moncton Center
Tue 12:03:33 PM 44.9333 -63.4500 360° North 130 150 3,000 700 Climbing Moncton Center
Tue 12:04:33 PM 44.9667 -63.4500 360° North 130 150 3,700 650 Climbing Moncton Center
Tue 12:05:33 PM 45.0000 -63.4500 360° North 130 150 4,300 650 Climbing Moncton Center
Tue 12:06:33 PM 45.0500 -63.4500 360° North 130 150 5,000 600 Climbing Moncton Center
Tue 12:07:33 PM 45.0833 -63.4500 360° North 140 161 5,500 500 Climbing Moncton Center
Tue 12:08:33 PM 45.1167 -63.4500 360° North 130 150 6,000 500 Climbing Moncton Center
Tue 12:09:33 PM 45.1500 -63.4500 360° North 140 161 6,500 450 Climbing Moncton Center
Tue 12:10:33 PM 45.2000 -63.4500 360° North 140 161 6,900 250 Climbing Moncton Center
Tue 12:11:33 PM 45.2333 -63.4500 360° North 160 184 7,000 50 Climbing Moncton Center
Tue 12:12:33 PM 45.2833 -63.4500 360° North 160 184 7,000  Level Moncton Center
Tue 12:13:33 PM 45.3333 -63.4500 360° North 170 196 7,000  Level Moncton Center
Tue 12:14:33 PM 45.3833 -63.4500 360° North 160 184 7,000 -100 Level Moncton Center
Tue 12:15:33 PM 45.4167 -63.4500 360° North 160 184 6,800 -400 Descending Moncton Center
Tue 12:16:33 PM 45.4667 -63.4500 360° North 170 196 6,200 -650 Descending Moncton Center
Tue 12:17:33 PM 45.5167 -63.4667 347° North 180 207 5,500 -650 Descending Moncton Center
Tue 12:18:33 PM 45.5667 -63.4667 360° North 180 207 4,900 -550 Descending Moncton Center
Tue 12:19:33 PM 45.6167 -63.4667 360° North 170 196 4,400 -550 Descending Moncton Center
Tue 12:20:33 PM 45.6500 -63.4833 341° North 160 184 3,800 -600 Descending Moncton Center
Tue 12:21:33 PM 45.7000 -63.4833 360° North 170 196 3,200 -500 Descending Moncton Center
Tue 12:22:33 PM 45.7500 -63.5167 335° Northwest 170 196 2,800 -550 Descending Moncton Center
Tue 12:23:33 PM 45.7833 -63.5167 360° North 150 173 2,100 -500 Descending Moncton Center
Tue 12:24:33 PM 45.8167 -63.5333 341° North 130 150 1,800 -300 Descending Moncton Center
Tue 12:25:33 PM 45.8500 -63.5333 360° North 130 150 1,500 -350 Descending Moncton Center
Tue 12:26:33 PM 45.8667 -63.5000 54° Northeast 120 138 1,100 -550 Descending Moncton Center
Tue 12:27:33 PM 45.8667 -63.4667 90° East 90 104 400 -450 Descending Moncton Center
Tue 12:28:33 PM 45.8500 -63.4333 126° Southeast 80 92 200 -200 Descending Moncton Center
Tue 12:30:00 PM 45.8908 -63.4741 325° Northwest  Level FlightAware Approximate
Tue 12:37:00 PM 45.8667 -63.4500 North  Level FlightAware Approximate
Tue 12:38:00 PM 45.8667 -63.4500 North  Level FlightAware Approximate

Login

Don't have an account? Register now (free) for customized features, flight alerts, and more!